sensor_id;sensor_type;location;lat;lon;timestamp;P1;durP1;ratioP1;P2;durP2;ratioP2
17566;SDS011;8901;52.088;5.084;2023-03-17T00:00:27;17.33;;;16.23;;
17566;SDS011;8901;52.088;5.084;2023-03-17T00:02:56;18.27;;;17.07;;
17566;SDS011;8901;52.088;5.084;2023-03-17T00:05:24;17.57;;;16.57;;
17566;SDS011;8901;52.088;5.084;2023-03-17T00:07:52;18.17;;;16.97;;
17566;SDS011;8901;52.088;5.084;2023-03-17T00:10:21;17.60;;;16.50;;
17566;SDS011;8901;52.088;5.084;2023-03-17T00:12:51;18.47;;;17.37;;
17566;SDS011;8901;52.088;5.084;2023-03-17T00:15:19;18.23;;;17.13;;
17566;SDS011;8901;52.088;5.084;2023-03-17T00:17:47;18.37;;;17.27;;
17566;SDS011;8901;52.088;5.084;2023-03-17T00:20:19;18.40;;;17.30;;
17566;SDS011;8901;52.088;5.084;2023-03-17T00:22:47;19.10;;;17.83;;
17566;SDS011;8901;52.088;5.084;2023-03-17T00:25:19;18.47;;;17.37;;
17566;SDS011;8901;52.088;5.084;2023-03-17T00:27:47;19.07;;;17.87;;
17566;SDS011;8901;52.088;5.084;2023-03-17T00:30:14;18.23;;;17.00;;
17566;SDS011;8901;52.088;5.084;2023-03-17T00:32:42;17.87;;;16.77;;
17566;SDS011;8901;52.088;5.084;2023-03-17T00:35:15;18.53;;;17.43;;
17566;SDS011;8901;52.088;5.084;2023-03-17T00:37:44;18.30;;;17.10;;
17566;SDS011;8901;52.088;5.084;2023-03-17T00:40:16;18.47;;;17.20;;
17566;SDS011;8901;52.088;5.084;2023-03-17T00:42:45;17.30;;;16.30;;
17566;SDS011;8901;52.088;5.084;2023-03-17T00:45:13;17.23;;;16.23;;
17566;SDS011;8901;52.088;5.084;2023-03-17T00:47:43;18.60;;;17.33;;
17566;SDS011;8901;52.088;5.084;2023-03-17T00:50:17;17.83;;;16.83;;
17566;SDS011;8901;52.088;5.084;2023-03-17T00:58:16;18.83;;;17.63;;
17566;SDS011;8901;52.088;5.084;2023-03-17T01:00:47;18.70;;;17.50;;
17566;SDS011;8901;52.088;5.084;2023-03-17T01:03:14;18.30;;;17.27;;
17566;SDS011;8901;52.088;5.084;2023-03-17T01:05:42;18.50;;;17.30;;
17566;SDS011;8901;52.088;5.084;2023-03-17T01:08:13;18.77;;;17.57;;
17566;SDS011;8901;52.088;5.084;2023-03-17T01:10:42;18.33;;;17.13;;
17566;SDS011;8901;52.088;5.084;2023-03-17T01:16:04;18.53;;;17.43;;
17566;SDS011;8901;52.088;5.084;2023-03-17T01:18:37;18.77;;;17.43;;
17566;SDS011;8901;52.088;5.084;2023-03-17T01:23:55;18.73;;;17.20;;
17566;SDS011;8901;52.088;5.084;2023-03-17T01:26:24;18.37;;;17.17;;
17566;SDS011;8901;52.088;5.084;2023-03-17T01:28:51;17.57;;;16.47;;
17566;SDS011;8901;52.088;5.084;2023-03-17T01:31:20;18.57;;;17.17;;
17566;SDS011;8901;52.088;5.084;2023-03-17T01:33:51;17.93;;;16.83;;
17566;SDS011;8901;52.088;5.084;2023-03-17T01:36:18;18.70;;;17.60;;
17566;SDS011;8901;52.088;5.084;2023-03-17T01:38:46;18.40;;;17.30;;
17566;SDS011;8901;52.088;5.084;2023-03-17T01:41:15;18.63;;;17.43;;
17566;SDS011;8901;52.088;5.084;2023-03-17T01:43:42;18.13;;;16.83;;
17566;SDS011;8901;52.088;5.084;2023-03-17T01:46:17;18.07;;;16.87;;
17566;SDS011;8901;52.088;5.084;2023-03-17T01:48:47;18.20;;;17.07;;
17566;SDS011;8901;52.088;5.084;2023-03-17T01:51:18;18.20;;;16.90;;
17566;SDS011;8901;52.088;5.084;2023-03-17T01:53:47;18.53;;;17.27;;
17566;SDS011;8901;52.088;5.084;2023-03-17T01:56:16;18.50;;;17.30;;
17566;SDS011;8901;52.088;5.084;2023-03-17T01:58:44;17.90;;;16.80;;
17566;SDS011;8901;52.088;5.084;2023-03-17T02:01:16;18.07;;;16.97;;
17566;SDS011;8901;52.088;5.084;2023-03-17T02:03:43;18.57;;;17.40;;
17566;SDS011;8901;52.088;5.084;2023-03-17T02:06:12;18.40;;;17.23;;
17566;SDS011;8901;52.088;5.084;2023-03-17T02:08:40;17.97;;;16.83;;
17566;SDS011;8901;52.088;5.084;2023-03-17T02:11:08;17.93;;;16.83;;
17566;SDS011;8901;52.088;5.084;2023-03-17T02:13:35;18.63;;;17.23;;
17566;SDS011;8901;52.088;5.084;2023-03-17T02:16:06;17.90;;;16.70;;
17566;SDS011;8901;52.088;5.084;2023-03-17T02:18:33;17.83;;;16.73;;
17566;SDS011;8901;52.088;5.084;2023-03-17T02:23:47;18.63;;;17.33;;
17566;SDS011;8901;52.088;5.084;2023-03-17T02:26:14;18.47;;;17.27;;
17566;SDS011;8901;52.088;5.084;2023-03-17T02:28:42;19.10;;;17.80;;
17566;SDS011;8901;52.088;5.084;2023-03-17T02:31:16;17.83;;;16.70;;
17566;SDS011;8901;52.088;5.084;2023-03-17T02:33:43;18.17;;;17.07;;
17566;SDS011;8901;52.088;5.084;2023-03-17T02:36:10;18.13;;;17.03;;
17566;SDS011;8901;52.088;5.084;2023-03-17T02:38:37;18.83;;;17.60;;
17566;SDS011;8901;52.088;5.084;2023-03-17T02:41:06;18.53;;;17.27;;
17566;SDS011;8901;52.088;5.084;2023-03-17T02:43:34;18.10;;;17.00;;
17566;SDS011;8901;52.088;5.084;2023-03-17T02:46:01;19.10;;;17.90;;
17566;SDS011;8901;52.088;5.084;2023-03-17T02:48:29;18.07;;;16.97;;
17566;SDS011;8901;52.088;5.084;2023-03-17T02:50:57;18.13;;;17.03;;
17566;SDS011;8901;52.088;5.084;2023-03-17T02:53:24;18.60;;;17.43;;
17566;SDS011;8901;52.088;5.084;2023-03-17T02:55:51;18.57;;;17.33;;
17566;SDS011;8901;52.088;5.084;2023-03-17T02:58:20;18.03;;;16.80;;
17566;SDS011;8901;52.088;5.084;2023-03-17T03:00:47;17.20;;;16.20;;
17566;SDS011;8901;52.088;5.084;2023-03-17T03:03:14;16.87;;;15.87;;
17566;SDS011;8901;52.088;5.084;2023-03-17T03:05:42;18.70;;;17.33;;
17566;SDS011;8901;52.088;5.084;2023-03-17T03:08:09;17.77;;;16.70;;
17566;SDS011;8901;52.088;5.084;2023-03-17T03:10:36;17.90;;;16.80;;
17566;SDS011;8901;52.088;5.084;2023-03-17T03:13:04;17.73;;;16.70;;
17566;SDS011;8901;52.088;5.084;2023-03-17T03:15:32;17.40;;;16.40;;
17566;SDS011;8901;52.088;5.084;2023-03-17T03:17:59;18.23;;;17.03;;
17566;SDS011;8901;52.088;5.084;2023-03-17T03:20:27;17.53;;;16.30;;
17566;SDS011;8901;52.088;5.084;2023-03-17T03:22:54;17.87;;;16.77;;
17566;SDS011;8901;52.088;5.084;2023-03-17T03:25:21;18.30;;;17.17;;
17566;SDS011;8901;52.088;5.084;2023-03-17T03:27:48;17.63;;;16.43;;
17566;SDS011;8901;52.088;5.084;2023-03-17T03:30:15;17.53;;;16.47;;
17566;SDS011;8901;52.088;5.084;2023-03-17T03:32:45;17.60;;;16.50;;
17566;SDS011;8901;52.088;5.084;2023-03-17T03:35:12;17.23;;;16.23;;
17566;SDS011;8901;52.088;5.084;2023-03-17T03:37:39;17.90;;;16.80;;
17566;SDS011;8901;52.088;5.084;2023-03-17T03:40:07;17.60;;;16.47;;
17566;SDS011;8901;52.088;5.084;2023-03-17T03:42:34;17.83;;;16.73;;
17566;SDS011;8901;52.088;5.084;2023-03-17T03:45:01;17.23;;;16.23;;
17566;SDS011;8901;52.088;5.084;2023-03-17T03:47:28;17.60;;;16.50;;
17566;SDS011;8901;52.088;5.084;2023-03-17T03:49:57;18.13;;;16.93;;
17566;SDS011;8901;52.088;5.084;2023-03-17T03:52:24;17.60;;;16.33;;
17566;SDS011;8901;52.088;5.084;2023-03-17T03:54:51;17.97;;;16.87;;
17566;SDS011;8901;52.088;5.084;2023-03-17T03:57:18;17.70;;;16.50;;
17566;SDS011;8901;52.088;5.084;2023-03-17T03:59:46;17.30;;;16.30;;
17566;SDS011;8901;52.088;5.084;2023-03-17T04:02:13;17.60;;;16.50;;
17566;SDS011;8901;52.088;5.084;2023-03-17T04:04:41;17.53;;;16.50;;
17566;SDS011;8901;52.088;5.084;2023-03-17T04:07:09;18.00;;;16.83;;
17566;SDS011;8901;52.088;5.084;2023-03-17T04:09:37;17.50;;;16.40;;
17566;SDS011;8901;52.088;5.084;2023-03-17T04:12:05;17.83;;;16.57;;
17566;SDS011;8901;52.088;5.084;2023-03-17T04:14:32;17.70;;;16.60;;
17566;SDS011;8901;52.088;5.084;2023-03-17T04:16:59;17.37;;;16.03;;
17566;SDS011;8901;52.088;5.084;2023-03-17T04:19:27;17.13;;;15.80;;
17566;SDS011;8901;52.088;5.084;2023-03-17T04:21:54;17.20;;;16.10;;
17566;SDS011;8901;52.088;5.084;2023-03-17T04:24:23;16.87;;;15.87;;
17566;SDS011;8901;52.088;5.084;2023-03-17T04:26:51;17.23;;;16.13;;
17566;SDS011;8901;52.088;5.084;2023-03-17T04:29:18;17.33;;;16.23;;
17566;SDS011;8901;52.088;5.084;2023-03-17T04:31:46;17.10;;;15.90;;
17566;SDS011;8901;52.088;5.084;2023-03-17T04:34:13;18.50;;;17.40;;
17566;SDS011;8901;52.088;5.084;2023-03-17T04:36:43;17.13;;;16.13;;
17566;SDS011;8901;52.088;5.084;2023-03-17T04:39:11;17.10;;;15.90;;
17566;SDS011;8901;52.088;5.084;2023-03-17T04:41:40;16.20;;;15.10;;
17566;SDS011;8901;52.088;5.084;2023-03-17T04:44:09;16.80;;;15.80;;
17566;SDS011;8901;52.088;5.084;2023-03-17T04:46:36;17.17;;;16.00;;
17566;SDS011;8901;52.088;5.084;2023-03-17T04:49:03;17.57;;;16.27;;
17566;SDS011;8901;52.088;5.084;2023-03-17T04:51:31;16.80;;;15.80;;
17566;SDS011;8901;52.088;5.084;2023-03-17T04:53:59;16.07;;;15.07;;
17566;SDS011;8901;52.088;5.084;2023-03-17T04:56:26;17.10;;;16.00;;
17566;SDS011;8901;52.088;5.084;2023-03-17T04:58:55;16.80;;;15.80;;
17566;SDS011;8901;52.088;5.084;2023-03-17T05:01:22;16.53;;;15.47;;
17566;SDS011;8901;52.088;5.084;2023-03-17T05:03:49;17.47;;;16.47;;
17566;SDS011;8901;52.088;5.084;2023-03-17T05:06:16;16.70;;;15.70;;
17566;SDS011;8901;52.088;5.084;2023-03-17T05:08:44;15.80;;;14.80;;
17566;SDS011;8901;52.088;5.084;2023-03-17T05:11:11;16.97;;;15.87;;
17566;SDS011;8901;52.088;5.084;2023-03-17T05:13:39;15.67;;;14.67;;
17566;SDS011;8901;52.088;5.084;2023-03-17T05:16:07;16.17;;;15.07;;
17566;SDS011;8901;52.088;5.084;2023-03-17T05:18:35;15.90;;;14.80;;
17566;SDS011;8901;52.088;5.084;2023-03-17T05:21:02;15.20;;;14.30;;
17566;SDS011;8901;52.088;5.084;2023-03-17T05:23:29;16.60;;;15.50;;
17566;SDS011;8901;52.088;5.084;2023-03-17T05:25:57;15.23;;;14.17;;
17566;SDS011;8901;52.088;5.084;2023-03-17T05:28:24;15.37;;;14.30;;
17566;SDS011;8901;52.088;5.084;2023-03-17T05:30:51;15.67;;;14.47;;
17566;SDS011;8901;52.088;5.084;2023-03-17T05:33:20;15.30;;;14.30;;
17566;SDS011;8901;52.088;5.084;2023-03-17T05:35:47;14.83;;;13.93;;
17566;SDS011;8901;52.088;5.084;2023-03-17T05:38:16;15.60;;;14.50;;
17566;SDS011;8901;52.088;5.084;2023-03-17T05:40:43;15.40;;;14.10;;
17566;SDS011;8901;52.088;5.084;2023-03-17T05:43:12;14.63;;;13.73;;
17566;SDS011;8901;52.088;5.084;2023-03-17T05:45:39;15.00;;;14.00;;
17566;SDS011;8901;52.088;5.084;2023-03-17T05:48:07;14.60;;;13.60;;
17566;SDS011;8901;52.088;5.084;2023-03-17T05:50:37;15.70;;;14.60;;
17566;SDS011;8901;52.088;5.084;2023-03-17T05:53:13;15.13;;;14.03;;
17566;SDS011;8901;52.088;5.084;2023-03-17T05:55:41;14.87;;;13.97;;
17566;SDS011;8901;52.088;5.084;2023-03-17T05:58:08;15.60;;;14.60;;
17566;SDS011;8901;52.088;5.084;2023-03-17T06:00:36;15.20;;;14.20;;
17566;SDS011;8901;52.088;5.084;2023-03-17T06:03:04;14.23;;;13.30;;
17566;SDS011;8901;52.088;5.084;2023-03-17T06:05:32;14.20;;;13.30;;
17566;SDS011;8901;52.088;5.084;2023-03-17T06:08:01;14.90;;;13.80;;
17566;SDS011;8901;52.088;5.084;2023-03-17T06:10:29;14.90;;;13.80;;
17566;SDS011;8901;52.088;5.084;2023-03-17T06:12:56;15.53;;;14.33;;
17566;SDS011;8901;52.088;5.084;2023-03-17T06:15:24;14.13;;;13.30;;
17566;SDS011;8901;52.088;5.084;2023-03-17T06:17:51;15.23;;;14.33;;
17566;SDS011;8901;52.088;5.084;2023-03-17T06:20:19;15.60;;;14.33;;
17566;SDS011;8901;52.088;5.084;2023-03-17T06:22:46;14.47;;;13.47;;
17566;SDS011;8901;52.088;5.084;2023-03-17T06:25:15;15.30;;;14.33;;
17566;SDS011;8901;52.088;5.084;2023-03-17T06:27:42;15.10;;;14.20;;
17566;SDS011;8901;52.088;5.084;2023-03-17T06:30:10;17.07;;;15.33;;
17566;SDS011;8901;52.088;5.084;2023-03-17T06:32:37;17.80;;;16.50;;
17566;SDS011;8901;52.088;5.084;2023-03-17T06:35:04;16.67;;;15.57;;
17566;SDS011;8901;52.088;5.084;2023-03-17T06:37:33;15.90;;;14.90;;
17566;SDS011;8901;52.088;5.084;2023-03-17T06:40:00;17.27;;;16.07;;
17566;SDS011;8901;52.088;5.084;2023-03-17T06:42:31;17.63;;;16.40;;
17566;SDS011;8901;52.088;5.084;2023-03-17T06:44:58;17.17;;;16.13;;
17566;SDS011;8901;52.088;5.084;2023-03-17T06:47:25;17.83;;;16.70;;
17566;SDS011;8901;52.088;5.084;2023-03-17T06:49:52;17.10;;;16.00;;
17566;SDS011;8901;52.088;5.084;2023-03-17T06:52:21;18.57;;;17.17;;
17566;SDS011;8901;52.088;5.084;2023-03-17T06:54:49;17.50;;;16.40;;
17566;SDS011;8901;52.088;5.084;2023-03-17T06:57:16;16.57;;;15.57;;
17566;SDS011;8901;52.088;5.084;2023-03-17T06:59:44;17.60;;;16.30;;
17566;SDS011;8901;52.088;5.084;2023-03-17T07:02:12;18.13;;;16.73;;
17566;SDS011;8901;52.088;5.084;2023-03-17T07:04:39;17.33;;;16.20;;
17566;SDS011;8901;52.088;5.084;2023-03-17T07:07:06;16.80;;;15.60;;
17566;SDS011;8901;52.088;5.084;2023-03-17T07:09:34;17.30;;;16.27;;
17566;SDS011;8901;52.088;5.084;2023-03-17T07:12:01;17.17;;;16.07;;
17566;SDS011;8901;52.088;5.084;2023-03-17T07:14:30;16.53;;;15.37;;
17566;SDS011;8901;52.088;5.084;2023-03-17T07:16:58;17.90;;;16.80;;
17566;SDS011;8901;52.088;5.084;2023-03-17T07:19:26;16.90;;;15.80;;
17566;SDS011;8901;52.088;5.084;2023-03-17T07:21:53;16.60;;;15.30;;
17566;SDS011;8901;52.088;5.084;2023-03-17T07:24:20;17.27;;;16.13;;
17566;SDS011;8901;52.088;5.084;2023-03-17T07:26:48;18.03;;;16.77;;
17566;SDS011;8901;52.088;5.084;2023-03-17T07:29:15;18.27;;;16.97;;
17566;SDS011;8901;52.088;5.084;2023-03-17T07:31:42;18.57;;;17.27;;
17566;SDS011;8901;52.088;5.084;2023-03-17T07:34:11;18.40;;;17.20;;
17566;SDS011;8901;52.088;5.084;2023-03-17T07:39:41;18.07;;;16.80;;
17566;SDS011;8901;52.088;5.084;2023-03-17T07:42:11;18.00;;;16.67;;
17566;SDS011;8901;52.088;5.084;2023-03-17T07:44:41;17.87;;;16.57;;
17566;SDS011;8901;52.088;5.084;2023-03-17T07:47:09;18.77;;;17.57;;
17566;SDS011;8901;52.088;5.084;2023-03-17T07:49:38;17.63;;;16.43;;
17566;SDS011;8901;52.088;5.084;2023-03-17T07:52:05;18.53;;;17.23;;
17566;SDS011;8901;52.088;5.084;2023-03-17T07:54:33;18.40;;;17.20;;
17566;SDS011;8901;52.088;5.084;2023-03-17T07:57:01;18.93;;;17.70;;
17566;SDS011;8901;52.088;5.084;2023-03-17T07:59:30;19.67;;;18.37;;
17566;SDS011;8901;52.088;5.084;2023-03-17T08:01:57;18.53;;;17.33;;
17566;SDS011;8901;52.088;5.084;2023-03-17T08:04:25;18.80;;;17.47;;
17566;SDS011;8901;52.088;5.084;2023-03-17T08:06:54;19.37;;;17.97;;
17566;SDS011;8901;52.088;5.084;2023-03-17T08:09:21;19.00;;;17.70;;
17566;SDS011;8901;52.088;5.084;2023-03-17T08:11:48;19.17;;;17.83;;
17566;SDS011;8901;52.088;5.084;2023-03-17T08:14:15;18.97;;;17.57;;
17566;SDS011;8901;52.088;5.084;2023-03-17T08:16:43;20.00;;;18.50;;
17566;SDS011;8901;52.088;5.084;2023-03-17T08:19:10;19.10;;;17.63;;
17566;SDS011;8901;52.088;5.084;2023-03-17T08:21:37;19.27;;;17.97;;
17566;SDS011;8901;52.088;5.084;2023-03-17T08:24:06;19.90;;;18.60;;
17566;SDS011;8901;52.088;5.084;2023-03-17T08:26:33;20.27;;;18.23;;
17566;SDS011;8901;52.088;5.084;2023-03-17T08:29:01;19.30;;;17.87;;
17566;SDS011;8901;52.088;5.084;2023-03-17T08:31:30;19.03;;;17.73;;
17566;SDS011;8901;52.088;5.084;2023-03-17T08:33:57;19.03;;;17.77;;
17566;SDS011;8901;52.088;5.084;2023-03-17T08:36:27;20.10;;;18.37;;
17566;SDS011;8901;52.088;5.084;2023-03-17T08:38:54;18.63;;;17.40;;
17566;SDS011;8901;52.088;5.084;2023-03-17T08:41:26;18.60;;;17.40;;
17566;SDS011;8901;52.088;5.084;2023-03-17T08:43:53;18.80;;;17.30;;
17566;SDS011;8901;52.088;5.084;2023-03-17T08:46:21;19.40;;;17.97;;
17566;SDS011;8901;52.088;5.084;2023-03-17T08:48:49;17.70;;;16.40;;
17566;SDS011;8901;52.088;5.084;2023-03-17T08:51:18;18.57;;;16.90;;
17566;SDS011;8901;52.088;5.084;2023-03-17T08:53:46;17.90;;;16.27;;
17566;SDS011;8901;52.088;5.084;2023-03-17T08:56:14;17.33;;;15.93;;
17566;SDS011;8901;52.088;5.084;2023-03-17T08:58:43;17.77;;;16.40;;
17566;SDS011;8901;52.088;5.084;2023-03-17T09:01:11;16.00;;;14.60;;
17566;SDS011;8901;52.088;5.084;2023-03-17T09:03:38;16.47;;;15.20;;
17566;SDS011;8901;52.088;5.084;2023-03-17T09:06:06;17.90;;;16.40;;
17566;SDS011;8901;52.088;5.084;2023-03-17T09:08:35;17.77;;;16.47;;
17566;SDS011;8901;52.088;5.084;2023-03-17T09:11:04;17.30;;;16.10;;
17566;SDS011;8901;52.088;5.084;2023-03-17T09:13:31;17.63;;;16.43;;
17566;SDS011;8901;52.088;5.084;2023-03-17T09:16:00;17.67;;;16.50;;
17566;SDS011;8901;52.088;5.084;2023-03-17T09:18:27;18.70;;;17.40;;
17566;SDS011;8901;52.088;5.084;2023-03-17T09:20:55;17.63;;;16.53;;
17566;SDS011;8901;52.088;5.084;2023-03-17T09:23:23;18.57;;;17.37;;
17566;SDS011;8901;52.088;5.084;2023-03-17T09:25:50;18.90;;;17.40;;
17566;SDS011;8901;52.088;5.084;2023-03-17T09:28:17;19.50;;;18.30;;
17566;SDS011;8901;52.088;5.084;2023-03-17T09:30:45;19.03;;;17.83;;
17566;SDS011;8901;52.088;5.084;2023-03-17T09:33:13;19.77;;;18.40;;
17566;SDS011;8901;52.088;5.084;2023-03-17T09:35:41;19.73;;;18.43;;
17566;SDS011;8901;52.088;5.084;2023-03-17T09:38:09;19.57;;;17.97;;
17566;SDS011;8901;52.088;5.084;2023-03-17T09:40:38;19.87;;;18.30;;
17566;SDS011;8901;52.088;5.084;2023-03-17T09:43:11;20.10;;;18.50;;
17566;SDS011;8901;52.088;5.084;2023-03-17T09:45:42;20.47;;;19.07;;
17566;SDS011;8901;52.088;5.084;2023-03-17T09:48:15;19.20;;;17.87;;
17566;SDS011;8901;52.088;5.084;2023-03-17T09:50:43;18.80;;;17.50;;
17566;SDS011;8901;52.088;5.084;2023-03-17T09:53:14;19.30;;;18.00;;
17566;SDS011;8901;52.088;5.084;2023-03-17T09:55:42;20.00;;;18.40;;
17566;SDS011;8901;52.088;5.084;2023-03-17T09:58:10;19.53;;;18.03;;
17566;SDS011;8901;52.088;5.084;2023-03-17T10:00:37;19.23;;;18.03;;
17566;SDS011;8901;52.088;5.084;2023-03-17T10:03:04;18.80;;;17.40;;
17566;SDS011;8901;52.088;5.084;2023-03-17T10:05:34;20.20;;;18.43;;
17566;SDS011;8901;52.088;5.084;2023-03-17T10:08:04;19.90;;;18.53;;
17566;SDS011;8901;52.088;5.084;2023-03-17T10:10:34;18.77;;;17.47;;
17566;SDS011;8901;52.088;5.084;2023-03-17T10:13:05;19.93;;;18.47;;
17566;SDS011;8901;52.088;5.084;2023-03-17T10:15:36;19.87;;;18.57;;
17566;SDS011;8901;52.088;5.084;2023-03-17T10:18:08;19.63;;;18.43;;
17566;SDS011;8901;52.088;5.084;2023-03-17T10:20:39;20.37;;;18.93;;
17566;SDS011;8901;52.088;5.084;2023-03-17T10:23:10;19.43;;;18.13;;
17566;SDS011;8901;52.088;5.084;2023-03-17T10:25:39;18.83;;;17.20;;
17566;SDS011;8901;52.088;5.084;2023-03-17T10:28:09;20.03;;;18.43;;
17566;SDS011;8901;52.088;5.084;2023-03-17T10:30:40;18.90;;;17.60;;
17566;SDS011;8901;52.088;5.084;2023-03-17T10:33:07;18.57;;;17.27;;
17566;SDS011;8901;52.088;5.084;2023-03-17T10:35:42;19.87;;;18.37;;
17566;SDS011;8901;52.088;5.084;2023-03-17T10:38:15;19.70;;;18.40;;
17566;SDS011;8901;52.088;5.084;2023-03-17T10:40:44;19.97;;;18.40;;
17566;SDS011;8901;52.088;5.084;2023-03-17T10:43:15;19.73;;;18.33;;
17566;SDS011;8901;52.088;5.084;2023-03-17T10:45:45;18.87;;;17.47;;
17566;SDS011;8901;52.088;5.084;2023-03-17T10:48:15;19.53;;;18.30;;
17566;SDS011;8901;52.088;5.084;2023-03-17T10:50:46;19.33;;;17.90;;
17566;SDS011;8901;52.088;5.084;2023-03-17T10:53:17;19.40;;;17.93;;
17566;SDS011;8901;52.088;5.084;2023-03-17T10:55:52;20.70;;;19.20;;
17566;SDS011;8901;52.088;5.084;2023-03-17T10:58:34;24.77;;;22.40;;
17566;SDS011;8901;52.088;5.084;2023-03-17T11:01:03;21.37;;;19.37;;
17566;SDS011;8901;52.088;5.084;2023-03-17T11:03:32;21.53;;;19.87;;
17566;SDS011;8901;52.088;5.084;2023-03-17T11:09:09;31.07;;;27.93;;
17566;SDS011;8901;52.088;5.084;2023-03-17T11:11:42;24.47;;;22.17;;
17566;SDS011;8901;52.088;5.084;2023-03-17T11:14:10;27.03;;;24.23;;
17566;SDS011;8901;52.088;5.084;2023-03-17T11:16:39;32.27;;;29.00;;
17566;SDS011;8901;52.088;5.084;2023-03-17T11:19:08;24.10;;;22.07;;
17566;SDS011;8901;52.088;5.084;2023-03-17T11:21:38;37.07;;;31.57;;
17566;SDS011;8901;52.088;5.084;2023-03-17T11:24:13;29.70;;;26.83;;
17566;SDS011;8901;52.088;5.084;2023-03-17T11:26:46;21.63;;;19.93;;
17566;SDS011;8901;52.088;5.084;2023-03-17T11:29:19;35.90;;;32.03;;
17566;SDS011;8901;52.088;5.084;2023-03-17T11:31:50;29.10;;;26.23;;
17566;SDS011;8901;52.088;5.084;2023-03-17T11:34:20;22.20;;;20.57;;
17566;SDS011;8901;52.088;5.084;2023-03-17T11:39:49;34.73;;;31.13;;
17566;SDS011;8901;52.088;5.084;2023-03-17T11:42:19;50.07;;;40.87;;
17566;SDS011;8901;52.088;5.084;2023-03-17T11:44:53;45.20;;;36.10;;
17566;SDS011;8901;52.088;5.084;2023-03-17T11:47:26;44.20;;;38.40;;
17566;SDS011;8901;52.088;5.084;2023-03-17T11:49:57;54.20;;;43.13;;
17566;SDS011;8901;52.088;5.084;2023-03-17T11:52:29;52.40;;;40.83;;
17566;SDS011;8901;52.088;5.084;2023-03-17T11:55:01;50.10;;;39.50;;
17566;SDS011;8901;52.088;5.084;2023-03-17T11:57:31;30.17;;;27.17;;
17566;SDS011;8901;52.088;5.084;2023-03-17T12:00:01;23.53;;;21.63;;
17566;SDS011;8901;52.088;5.084;2023-03-17T12:02:30;24.67;;;22.70;;
17566;SDS011;8901;52.088;5.084;2023-03-17T12:05:01;41.50;;;33.00;;
17566;SDS011;8901;52.088;5.084;2023-03-17T12:07:31;25.10;;;22.93;;
17566;SDS011;8901;52.088;5.084;2023-03-17T12:10:02;21.40;;;19.90;;
17566;SDS011;8901;52.088;5.084;2023-03-17T12:12:35;22.93;;;21.07;;
17566;SDS011;8901;52.088;5.084;2023-03-17T12:15:04;37.50;;;33.50;;
17566;SDS011;8901;52.088;5.084;2023-03-17T12:17:41;22.37;;;20.33;;
17566;SDS011;8901;52.088;5.084;2023-03-17T12:20:11;35.17;;;31.50;;
17566;SDS011;8901;52.088;5.084;2023-03-17T12:22:43;22.20;;;20.47;;
17566;SDS011;8901;52.088;5.084;2023-03-17T12:25:15;28.03;;;25.47;;
17566;SDS011;8901;52.088;5.084;2023-03-17T12:30:58;20.63;;;19.23;;
17566;SDS011;8901;52.088;5.084;2023-03-17T12:33:29;36.63;;;32.77;;
17566;SDS011;8901;52.088;5.084;2023-03-17T12:45:14;27.67;;;24.97;;
17566;SDS011;8901;52.088;5.084;2023-03-17T12:50:45;21.57;;;19.80;;
17566;SDS011;8901;52.088;5.084;2023-03-17T12:53:28;42.23;;;33.17;;
17566;SDS011;8901;52.088;5.084;2023-03-17T12:55:59;49.33;;;39.67;;
17566;SDS011;8901;52.088;5.084;2023-03-17T13:21:56;19.93;;;18.43;;
17566;SDS011;8901;52.088;5.084;2023-03-17T13:24:41;21.63;;;19.80;;
17566;SDS011;8901;52.088;5.084;2023-03-17T13:32:53;28.53;;;25.50;;
17566;SDS011;8901;52.088;5.084;2023-03-17T13:35:24;22.83;;;20.97;;
17566;SDS011;8901;52.088;5.084;2023-03-17T13:38:04;23.80;;;21.80;;
17566;SDS011;8901;52.088;5.084;2023-03-17T13:40:34;26.27;;;23.77;;
17566;SDS011;8901;52.088;5.084;2023-03-17T13:43:08;37.93;;;32.63;;
17566;SDS011;8901;52.088;5.084;2023-03-17T13:45:39;25.10;;;22.73;;
17566;SDS011;8901;52.088;5.084;2023-03-17T13:48:30;23.00;;;21.10;;
17566;SDS011;8901;52.088;5.084;2023-03-17T13:50:58;29.33;;;26.43;;
17566;SDS011;8901;52.088;5.084;2023-03-17T13:53:28;23.50;;;21.00;;
17566;SDS011;8901;52.088;5.084;2023-03-17T13:56:03;27.60;;;24.93;;
17566;SDS011;8901;52.088;5.084;2023-03-17T13:58:32;24.70;;;22.47;;
17566;SDS011;8901;52.088;5.084;2023-03-17T14:01:01;26.37;;;24.13;;
17566;SDS011;8901;52.088;5.084;2023-03-17T14:03:33;28.13;;;25.57;;
17566;SDS011;8901;52.088;5.084;2023-03-17T14:06:02;30.90;;;27.63;;
17566;SDS011;8901;52.088;5.084;2023-03-17T14:08:32;25.80;;;23.50;;
17566;SDS011;8901;52.088;5.084;2023-03-17T14:11:01;30.13;;;27.07;;
17566;SDS011;8901;52.088;5.084;2023-03-17T14:13:31;21.00;;;19.23;;
17566;SDS011;8901;52.088;5.084;2023-03-17T14:16:03;30.90;;;27.57;;
17566;SDS011;8901;52.088;5.084;2023-03-17T14:18:31;25.93;;;23.23;;
17566;SDS011;8901;52.088;5.084;2023-03-17T14:21:00;21.90;;;20.27;;
17566;SDS011;8901;52.088;5.084;2023-03-17T14:23:29;30.13;;;27.27;;
17566;SDS011;8901;52.088;5.084;2023-03-17T14:25:59;24.47;;;22.43;;
17566;SDS011;8901;52.088;5.084;2023-03-17T14:28:30;23.17;;;21.13;;
17566;SDS011;8901;52.088;5.084;2023-03-17T14:30:58;24.00;;;21.90;;
17566;SDS011;8901;52.088;5.084;2023-03-17T14:33:26;22.57;;;20.73;;
17566;SDS011;8901;52.088;5.084;2023-03-17T14:35:55;22.00;;;20.10;;
17566;SDS011;8901;52.088;5.084;2023-03-17T14:38:24;21.93;;;20.33;;
17566;SDS011;8901;52.088;5.084;2023-03-17T14:41:00;21.53;;;19.83;;
17566;SDS011;8901;52.088;5.084;2023-03-17T14:43:28;22.43;;;20.47;;
17566;SDS011;8901;52.088;5.084;2023-03-17T14:45:58;23.77;;;21.67;;
17566;SDS011;8901;52.088;5.084;2023-03-17T14:48:37;23.00;;;21.30;;
17566;SDS011;8901;52.088;5.084;2023-03-17T14:51:06;21.57;;;19.93;;
17566;SDS011;8901;52.088;5.084;2023-03-17T14:53:35;26.40;;;24.27;;
17566;SDS011;8901;52.088;5.084;2023-03-17T14:56:10;24.47;;;22.47;;
17566;SDS011;8901;52.088;5.084;2023-03-17T14:58:39;21.80;;;20.20;;
17566;SDS011;8901;52.088;5.084;2023-03-17T15:01:07;22.50;;;20.63;;
17566;SDS011;8901;52.088;5.084;2023-03-17T15:03:39;21.60;;;20.13;;
17566;SDS011;8901;52.088;5.084;2023-03-17T15:06:19;21.13;;;19.63;;
17566;SDS011;8901;52.088;5.084;2023-03-17T15:08:47;20.80;;;19.40;;
17566;SDS011;8901;52.088;5.084;2023-03-17T15:11:17;22.43;;;20.77;;
17566;SDS011;8901;52.088;5.084;2023-03-17T15:13:45;22.30;;;20.57;;
17566;SDS011;8901;52.088;5.084;2023-03-17T15:16:19;22.40;;;20.47;;
17566;SDS011;8901;52.088;5.084;2023-03-17T15:18:47;22.10;;;20.07;;
17566;SDS011;8901;52.088;5.084;2023-03-17T15:21:20;21.20;;;19.73;;
17566;SDS011;8901;52.088;5.084;2023-03-17T15:23:48;23.43;;;21.60;;
17566;SDS011;8901;52.088;5.084;2023-03-17T15:26:21;23.17;;;21.27;;
17566;SDS011;8901;52.088;5.084;2023-03-17T15:28:48;27.10;;;24.73;;
17566;SDS011;8901;52.088;5.084;2023-03-17T15:31:15;26.90;;;24.70;;
17566;SDS011;8901;52.088;5.084;2023-03-17T15:33:47;24.10;;;22.00;;
17566;SDS011;8901;52.088;5.084;2023-03-17T15:36:15;25.37;;;23.23;;
17566;SDS011;8901;52.088;5.084;2023-03-17T15:38:42;27.80;;;24.93;;
17566;SDS011;8901;52.088;5.084;2023-03-17T15:41:09;24.10;;;22.17;;
17566;SDS011;8901;52.088;5.084;2023-03-17T15:43:38;26.00;;;23.73;;
17566;SDS011;8901;52.088;5.084;2023-03-17T15:46:06;24.40;;;22.50;;
17566;SDS011;8901;52.088;5.084;2023-03-17T15:48:36;26.10;;;23.80;;
17566;SDS011;8901;52.088;5.084;2023-03-17T15:51:03;21.90;;;20.40;;